Time;durP1;ratioP1;P1;durP2;ratioP2;P2;SDS_P1;SDS_P2;PMS_P1;PMS_P2;Temp;Humidity;BMP_temperature;BMP_pressure;BME280_temperature;BME280_humidity;BME280_pressure;Samples;Min_cycle;Max_cycle;Signal;HPM_P1;HPM_P2
2023/12/04 00:00:40;;;;;;;14.70;7.07;;;;;;;;;;5055466;28;20032;-65
2023/12/04 00:03:05;;;;;;;14.05;7.18;;;;;;;;;;5055388;28;20021;-65
2023/12/04 00:05:31;;;;;;;15.68;6.85;;;;;;;;;;5055302;28;20040;-65
2023/12/04 00:07:56;;;;;;;12.00;5.95;;;;;;;;;;5055395;28;20040;-66
2023/12/04 00:10:22;;;;;;;17.83;7.90;;;;;;;;;;5055332;28;20021;-67
2023/12/04 00:12:47;;;;;;;16.05;7.70;;;;;;;;;;5055217;28;20033;-67
2023/12/04 00:15:13;;;;;;;13.82;7.15;;;;;;;;;;5055156;28;20363;-66
2023/12/04 00:17:39;;;;;;;19.02;8.10;;;;;;;;;;5054907;28;20445;-66
2023/12/04 00:20:11;;;;;;;19.30;8.05;;;;;;;;;;5055070;28;20111;-65
2023/12/04 00:22:37;;;;;;;19.30;8.05;;;;;;;;;;5035159;28;20025;-66
2023/12/04 00:25:06;;;;;;;16.30;8.40;;;;;;;;;;5035238;28;20418;-66
2023/12/04 00:27:32;;;;;;;12.80;5.90;;;;;;;;;;5035026;28;20475;-66
2023/12/04 00:29:57;;;;;;;10.77;6.70;;;;;;;;;;5040898;28;20028;-66
2023/12/04 00:32:24;;;;;;;12.05;5.63;;;;;;;;;;5054752;28;20021;-66
2023/12/04 00:34:49;;;;;;;19.60;9.13;;;;;;;;;;5054711;28;20037;-66
2023/12/04 00:37:14;;;;;;;18.58;7.65;;;;;;;;;;5053450;28;20021;-66
2023/12/04 00:39:40;;;;;;;12.73;5.95;;;;;;;;;;5054731;28;20426;-66
2023/12/04 00:42:05;;;;;;;15.43;6.95;;;;;;;;;;5054717;28;20040;-66
2023/12/04 00:44:31;;;;;;;15.57;7.07;;;;;;;;;;5053426;28;20029;-67
2023/12/04 00:46:57;;;;;;;18.55;8.48;;;;;;;;;;5054298;28;20028;-67
2023/12/04 00:49:23;;;;;;;15.18;7.65;;;;;;;;;;5054423;28;20090;-66
2023/12/04 00:51:48;;;;;;;14.18;6.50;;;;;;;;;;5054179;28;20025;-66
2023/12/04 00:54:13;;;;;;;15.60;7.05;;;;;;;;;;5054342;28;20037;-67
2023/12/04 00:56:39;;;;;;;8.60;4.90;;;;;;;;;;5054469;28;20021;-66
2023/12/04 00:59:06;;;;;;;11.60;5.97;;;;;;;;;;5054356;28;20020;-67
2023/12/04 01:01:32;;;;;;;14.82;7.25;;;;;;;;;;5054011;28;20024;-67
2023/12/04 01:03:58;;;;;;;13.50;6.55;;;;;;;;;;5054307;28;20075;-66
2023/12/04 01:06:23;;;;;;;14.68;8.45;;;;;;;;;;5052664;28;20423;-66
2023/12/04 01:08:50;;;;;;;10.07;5.95;;;;;;;;;;5054141;28;20028;-65
2023/12/04 01:11:17;;;;;;;12.45;6.22;;;;;;;;;;5054099;28;20052;-66
2023/12/04 01:13:42;;;;;;;13.98;6.97;;;;;;;;;;5054050;28;20021;-65
2023/12/04 01:16:09;;;;;;;17.38;7.53;;;;;;;;;;5054007;28;20486;-65
2023/12/04 01:18:34;;;;;;;12.15;6.30;;;;;;;;;;5052717;28;20024;-66
2023/12/04 01:21:00;;;;;;;10.05;5.88;;;;;;;;;;5053977;28;20025;-67
2023/12/04 01:23:25;;;;;;;12.25;6.28;;;;;;;;;;5053809;28;20025;-66
2023/12/04 01:25:50;;;;;;;13.30;6.78;;;;;;;;;;5053926;28;20029;-66
2023/12/04 01:28:16;;;;;;;19.50;9.55;;;;;;;;;;5053792;28;20116;-66
2023/12/04 01:30:41;;;;;;;15.30;7.40;;;;;;;;;;5053579;28;20478;-66
2023/12/04 01:33:08;;;;;;;17.02;7.68;;;;;;;;;;5053544;28;20347;-66
2023/12/04 01:35:34;;;;;;;16.25;7.00;;;;;;;;;;5053507;28;20036;-66
2023/12/04 01:37:59;;;;;;;18.25;8.52;;;;;;;;;;5053647;28;20029;-66
2023/12/04 01:40:26;;;;;;;17.40;8.07;;;;;;;;;;5053498;28;20049;-66
2023/12/04 01:42:51;;;;;;;16.98;7.53;;;;;;;;;;5052170;28;20037;-66
2023/12/04 01:45:17;;;;;;;21.13;8.60;;;;;;;;;;5053164;28;20025;-66
2023/12/04 01:47:42;;;;;;;19.17;8.00;;;;;;;;;;5053212;28;20129;-66
2023/12/04 01:50:08;;;;;;;20.60;8.07;;;;;;;;;;5052213;28;20025;-66
2023/12/04 01:52:35;;;;;;;17.88;7.10;;;;;;;;;;5053034;28;20067;-66
2023/12/04 01:55:02;;;;;;;21.85;11.68;;;;;;;;;;5053379;28;20029;-66
2023/12/04 01:57:27;;;;;;;16.70;8.13;;;;;;;;;;5053168;28;20056;-66
2023/12/04 01:59:53;;;;;;;15.00;7.55;;;;;;;;;;5053073;28;20060;-66
2023/12/04 02:02:20;;;;;;;11.75;5.80;;;;;;;;;;5053136;28;20094;-67
2023/12/04 02:04:45;;;;;;;18.33;7.25;;;;;;;;;;5053259;28;20318;-66
2023/12/04 02:07:11;;;;;;;21.52;8.80;;;;;;;;;;5052989;28;20060;-67
2023/12/04 02:09:37;;;;;;;17.73;8.02;;;;;;;;;;5051589;28;20032;-67
2023/12/04 02:12:03;;;;;;;17.15;7.80;;;;;;;;;;5051784;28;20032;-67
2023/12/04 02:14:29;;;;;;;19.75;8.60;;;;;;;;;;5052610;28;20083;-67
2023/12/04 02:16:56;;;;;;;21.30;8.65;;;;;;;;;;5052704;28;20029;-67
2023/12/04 02:19:22;;;;;;;17.02;8.05;;;;;;;;;;5052140;28;20059;-67
2023/12/04 02:21:47;;;;;;;16.50;7.80;;;;;;;;;;5052830;28;20427;-67
2023/12/04 02:24:13;;;;;;;16.60;7.47;;;;;;;;;;5052868;28;20386;-67
2023/12/04 02:26:50;;;;;;;19.48;8.07;;;;;;;;;;5052756;28;20029;-67
2023/12/04 02:29:23;;;;;;;25.15;11.93;;;;;;;;;;5052363;28;20458;-67
2023/12/04 02:31:50;;;;;;;20.23;9.43;;;;;;;;;;5052723;28;20458;-67
2023/12/04 02:34:17;;;;;;;17.60;7.97;;;;;;;;;;5035856;28;20489;-67
2023/12/04 02:36:43;;;;;;;18.30;7.78;;;;;;;;;;5052601;28;20024;-67
2023/12/04 02:39:09;;;;;;;19.10;8.38;;;;;;;;;;5052473;28;20104;-67
2023/12/04 02:41:34;;;;;;;34.55;15.48;;;;;;;;;;5052500;28;20498;-66
2023/12/04 02:44:00;;;;;;;21.65;10.18;;;;;;;;;;5052338;28;20576;-66
2023/12/04 02:46:25;;;;;;;19.55;8.20;;;;;;;;;;5052442;28;20087;-66
2023/12/04 02:48:50;;;;;;;19.95;8.95;;;;;;;;;;5052367;28;20482;-66
2023/12/04 02:51:16;;;;;;;21.45;10.13;;;;;;;;;;5052307;28;20037;-66
2023/12/04 02:53:41;;;;;;;19.85;8.80;;;;;;;;;;5052218;28;20084;-66
2023/12/04 02:56:07;;;;;;;18.77;9.05;;;;;;;;;;5052333;28;20074;-66
2023/12/04 02:58:34;;;;;;;19.52;8.90;;;;;;;;;;5052095;28;20021;-66
2023/12/04 03:01:00;;;;;;;23.05;9.43;;;;;;;;;;5052303;28;20025;-67
2023/12/04 03:03:25;;;;;;;19.58;8.38;;;;;;;;;;5052233;28;20101;-66
2023/12/04 03:05:50;;;;;;;18.77;8.35;;;;;;;;;;5052385;28;20087;-67
2023/12/04 03:08:16;;;;;;;18.35;7.80;;;;;;;;;;5052314;28;20374;-66
2023/12/04 03:10:41;;;;;;;19.40;8.07;;;;;;;;;;5052186;28;20021;-66
2023/12/04 03:13:07;;;;;;;7.88;3.75;;;;;;;;;;5051973;28;20347;-66
2023/12/04 03:15:32;;;;;;;18.60;9.00;;;;;;;;;;5052138;28;20427;-67
2023/12/04 03:17:59;;;;;;;16.80;7.57;;;;;;;;;;5052111;28;20550;-67
2023/12/04 03:20:25;;;;;;;15.50;7.55;;;;;;;;;;5052049;28;20490;-67
2023/12/04 03:22:50;;;;;;;17.40;7.68;;;;;;;;;;5052234;28;20025;-67
2023/12/04 03:25:15;;;;;;;19.15;8.60;;;;;;;;;;5052019;28;20029;-67
2023/12/04 03:27:41;;;;;;;17.48;8.38;;;;;;;;;;5051869;28;20083;-67
2023/12/04 03:30:07;;;;;;;18.35;8.25;;;;;;;;;;5053018;28;20415;-67
2023/12/04 03:32:32;;;;;;;14.63;7.90;;;;;;;;;;5055762;28;20025;-66
2023/12/04 03:34:58;;;;;;;25.77;9.55;;;;;;;;;;5056033;28;20478;-66
2023/12/04 03:37:23;;;;;;;23.23;10.98;;;;;;;;;;5055772;28;20037;-67
2023/12/04 03:39:50;;;;;;;20.35;10.13;;;;;;;;;;5055780;28;20499;-66
2023/12/04 03:42:16;;;;;;;16.27;7.78;;;;;;;;;;5055626;28;20112;-65
2023/12/04 03:44:41;;;;;;;17.30;8.80;;;;;;;;;;5055334;28;20108;-65
2023/12/04 03:47:06;;;;;;;18.77;8.18;;;;;;;;;;5055598;28;20429;-66
2023/12/04 03:49:32;;;;;;;15.63;8.10;;;;;;;;;;5055484;28;20466;-66
2023/12/04 03:51:57;;;;;;;18.35;8.82;;;;;;;;;;5055390;28;20021;-66
2023/12/04 03:54:23;;;;;;;20.50;8.93;;;;;;;;;;5055572;28;20078;-66
2023/12/04 03:56:48;;;;;;;17.05;8.02;;;;;;;;;;5055250;28;20046;-66
2023/12/04 03:59:13;;;;;;;17.48;8.80;;;;;;;;;;5055353;28;20029;-66
2023/12/04 04:01:39;;;;;;;16.05;8.50;;;;;;;;;;5055653;28;20036;-66
2023/12/04 04:04:04;;;;;;;18.98;8.93;;;;;;;;;;5055517;28;20028;-66
2023/12/04 04:06:30;;;;;;;18.45;9.05;;;;;;;;;;5055472;28;20086;-66
2023/12/04 04:08:55;;;;;;;18.13;8.82;;;;;;;;;;5055088;28;20025;-67
2023/12/04 04:11:21;;;;;;;24.45;8.93;;;;;;;;;;5055172;28;20029;-66
2023/12/04 04:13:46;;;;;;;16.70;8.90;;;;;;;;;;5055188;28;20112;-66
2023/12/04 04:16:16;;;;;;;16.42;7.85;;;;;;;;;;5055517;28;20024;-66
2023/12/04 04:18:42;;;;;;;19.25;8.85;;;;;;;;;;5054924;28;20351;-66
2023/12/04 04:21:08;;;;;;;19.42;9.65;;;;;;;;;;5055180;28;20044;-66
2023/12/04 04:23:34;;;;;;;22.45;10.32;;;;;;;;;;5054921;28;20065;-66
2023/12/04 04:25:59;;;;;;;21.90;9.43;;;;;;;;;;5054984;28;20032;-66
2023/12/04 04:28:25;;;;;;;16.48;8.38;;;;;;;;;;5053688;28;20021;-66
2023/12/04 04:30:50;;;;;;;17.73;8.82;;;;;;;;;;5054903;28;20021;-66
2023/12/04 04:33:17;;;;;;;18.63;8.55;;;;;;;;;;5054619;28;20036;-66
2023/12/04 04:35:42;;;;;;;18.85;9.27;;;;;;;;;;5054759;28;20350;-67
2023/12/04 04:38:08;;;;;;;17.88;8.57;;;;;;;;;;5054477;28;20029;-67
2023/12/04 04:40:34;;;;;;;23.00;9.90;;;;;;;;;;5054652;28;20052;-66
2023/12/04 04:42:59;;;;;;;20.98;9.75;;;;;;;;;;5054212;28;20072;-66
2023/12/04 04:45:25;;;;;;;23.10;9.50;;;;;;;;;;5054415;28;20120;-66
2023/12/04 04:47:50;;;;;;;18.88;8.15;;;;;;;;;;5054386;28;20087;-66
2023/12/04 04:50:15;;;;;;;20.02;9.88;;;;;;;;;;5054365;28;20079;-66
2023/12/04 04:52:41;;;;;;;16.75;8.43;;;;;;;;;;5054008;28;20073;-66
2023/12/04 04:55:07;;;;;;;23.13;9.93;;;;;;;;;;5054496;28;20051;-65
2023/12/04 04:57:32;;;;;;;21.25;9.18;;;;;;;;;;5054276;28;20036;-66
2023/12/04 04:59:57;;;;;;;20.77;9.60;;;;;;;;;;5054157;28;20540;-65
2023/12/04 05:02:23;;;;;;;17.42;9.18;;;;;;;;;;5054278;28;20029;-66
2023/12/04 05:04:48;;;;;;;20.27;10.27;;;;;;;;;;5054288;28;20059;-65
2023/12/04 05:07:14;;;;;;;20.65;8.27;;;;;;;;;;5054024;28;20021;-66
2023/12/04 05:09:39;;;;;;;18.63;8.73;;;;;;;;;;5067293;28;20044;-66
2023/12/04 05:12:05;;;;;;;22.23;9.25;;;;;;;;;;5058848;28;20049;-66
2023/12/04 05:14:31;;;;;;;20.33;9.73;;;;;;;;;;5054059;28;20036;-65
2023/12/04 05:16:56;;;;;;;19.08;8.82;;;;;;;;;;5054105;28;20029;-66
2023/12/04 05:19:21;;;;;;;16.48;7.60;;;;;;;;;;5053851;28;20055;-66
2023/12/04 05:21:47;;;;;;;19.23;9.07;;;;;;;;;;5053570;28;20529;-66
2023/12/04 05:24:12;;;;;;;13.40;6.63;;;;;;;;;;5063920;28;20032;-66
2023/12/04 05:26:37;;;;;;;17.23;8.48;;;;;;;;;;5073777;28;20027;-66
2023/12/04 05:29:03;;;;;;;15.95;7.35;;;;;;;;;;5073811;28;20378;-66
2023/12/04 05:31:28;;;;;;;24.55;9.57;;;;;;;;;;5054949;28;20025;-66
2023/12/04 05:33:54;;;;;;;9.20;5.47;;;;;;;;;;5053406;28;20120;-66
2023/12/04 05:36:19;;;;;;;19.83;9.10;;;;;;;;;;5053439;28;20370;-66
2023/12/04 05:38:45;;;;;;;17.60;8.70;;;;;;;;;;5053035;28;20033;-67
2023/12/04 05:41:10;;;;;;;17.60;8.43;;;;;;;;;;5053574;28;20063;-67
2023/12/04 05:43:35;;;;;;;24.77;10.18;;;;;;;;;;5053549;28;20106;-67
2023/12/04 05:46:01;;;;;;;22.17;9.00;;;;;;;;;;5053495;28;20539;-67
2023/12/04 05:48:27;;;;;;;20.15;8.63;;;;;;;;;;5053215;28;20497;-67
2023/12/04 05:50:52;;;;;;;33.03;7.85;;;;;;;;;;5053069;28;20637;-66
2023/12/04 05:53:18;;;;;;;19.80;9.20;;;;;;;;;;5052352;28;20041;-67
2023/12/04 05:55:46;;;;;;;27.38;10.20;;;;;;;;;;5053480;28;20086;-66
2023/12/04 05:58:11;;;;;;;21.73;9.25;;;;;;;;;;5051924;28;20024;-66
2023/12/04 06:00:37;;;;;;;22.17;9.77;;;;;;;;;;5053254;28;20338;-66
2023/12/04 06:03:02;;;;;;;17.73;9.93;;;;;;;;;;5053072;28;20029;-66
2023/12/04 06:05:28;;;;;;;16.80;7.32;;;;;;;;;;5052878;28;20393;-66
2023/12/04 06:07:53;;;;;;;17.65;7.38;;;;;;;;;;5053173;28;20048;-65
2023/12/04 06:10:19;;;;;;;22.27;9.93;;;;;;;;;;5052892;28;20017;-66
2023/12/04 06:12:44;;;;;;;21.92;9.13;;;;;;;;;;5052869;28;20025;-65
2023/12/04 06:15:09;;;;;;;10.93;7.22;;;;;;;;;;5053002;28;20040;-65
2023/12/04 06:17:35;;;;;;;22.40;9.02;;;;;;;;;;5052829;28;20364;-65
2023/12/04 06:20:01;;;;;;;17.55;7.85;;;;;;;;;;5052548;28;20540;-66
2023/12/04 06:22:26;;;;;;;10.77;5.10;;;;;;;;;;5052511;28;20485;-66
2023/12/04 06:24:52;;;;;;;24.08;11.18;;;;;;;;;;5052502;28;20025;-67
2023/12/04 06:27:22;;;;;;;10.02;5.47;;;;;;;;;;5052515;28;20063;-67
2023/12/04 06:29:48;;;;;;;25.48;9.98;;;;;;;;;;5052461;28;20478;-67
2023/12/04 06:32:14;;;;;;;25.98;9.95;;;;;;;;;;5052480;28;20033;-67
2023/12/04 06:34:40;;;;;;;24.75;9.25;;;;;;;;;;5052135;28;20025;-67
2023/12/04 06:37:10;;;;;;;22.13;9.38;;;;;;;;;;5051205;28;20082;-67
2023/12/04 06:39:37;;;;;;;15.82;8.00;;;;;;;;;;5052502;28;20176;-67
2023/12/04 06:42:04;;;;;;;22.15;8.07;;;;;;;;;;5052501;28;20033;-67
2023/12/04 06:44:30;;;;;;;13.10;5.82;;;;;;;;;;5052402;28;20064;-68
2023/12/04 06:46:59;;;;;;;30.23;11.00;;;;;;;;;;5052213;28;20040;-67
2023/12/04 06:49:27;;;;;;;24.83;9.13;;;;;;;;;;5051873;28;20029;-67
2023/12/04 06:51:53;;;;;;;17.25;7.82;;;;;;;;;;5052070;28;20443;-67
2023/12/04 06:54:18;;;;;;;33.15;11.23;;;;;;;;;;5052373;28;20033;-67
2023/12/04 06:56:44;;;;;;;27.95;10.48;;;;;;;;;;5052200;28;20024;-68
2023/12/04 06:59:09;;;;;;;30.13;11.00;;;;;;;;;;5052223;28;20033;-66
2023/12/04 07:01:35;;;;;;;37.58;11.45;;;;;;;;;;5052027;28;20403;-66
2023/12/04 07:04:00;;;;;;;34.00;11.77;;;;;;;;;;5051975;28;20013;-66
2023/12/04 07:06:26;;;;;;;26.63;10.52;;;;;;;;;;5051960;28;20382;-66
2023/12/04 07:08:51;;;;;;;18.42;8.75;;;;;;;;;;5051933;28;20079;-66
2023/12/04 07:11:17;;;;;;;32.47;10.13;;;;;;;;;;5051922;28;20071;-66
2023/12/04 07:13:42;;;;;;;12.52;5.38;;;;;;;;;;5052105;28;20394;-66
2023/12/04 07:16:08;;;;;;;21.00;10.02;;;;;;;;;;5052091;28;20382;-66
2023/12/04 07:18:34;;;;;;;24.63;10.27;;;;;;;;;;5051755;28;20130;-66
2023/12/04 07:21:00;;;;;;;27.45;10.40;;;;;;;;;;5052006;28;20049;-66
2023/12/04 07:23:25;;;;;;;28.10;10.23;;;;;;;;;;5051840;28;20036;-66
2023/12/04 07:25:52;;;;;;;20.95;10.20;;;;;;;;;;5051977;28;20025;-67
2023/12/04 07:28:18;;;;;;;29.92;11.25;;;;;;;;;;5051738;28;20115;-67
2023/12/04 07:30:43;;;;;;;13.48;6.65;;;;;;;;;;5051808;28;20431;-67
2023/12/04 07:33:08;;;;;;;19.67;7.68;;;;;;;;;;5051466;28;20029;-67
2023/12/04 07:35:34;;;;;;;21.00;9.38;;;;;;;;;;5051630;28;20025;-66
2023/12/04 07:37:59;;;;;;;25.48;9.80;;;;;;;;;;5051817;28;20087;-66
2023/12/04 07:40:25;;;;;;;27.48;10.43;;;;;;;;;;5051792;28;20025;-66
2023/12/04 07:42:50;;;;;;;11.90;6.20;;;;;;;;;;5051647;28;20021;-66
2023/12/04 07:45:16;;;;;;;28.40;10.45;;;;;;;;;;5051713;28;20039;-66
2023/12/04 07:47:41;;;;;;;22.63;10.32;;;;;;;;;;5051310;28;20037;-66
2023/12/04 07:50:07;;;;;;;28.42;10.77;;;;;;;;;;5051730;28;20036;-67
2023/12/04 07:52:32;;;;;;;14.85;7.05;;;;;;;;;;5051518;28;20041;-66
2023/12/04 07:54:58;;;;;;;20.25;8.43;;;;;;;;;;5051715;28;20109;-66
2023/12/04 07:57:23;;;;;;;10.20;5.45;;;;;;;;;;5051677;28;20025;-66
2023/12/04 07:59:49;;;;;;;21.02;9.77;;;;;;;;;;5051202;28;20033;-66
2023/12/04 08:02:14;;;;;;;18.92;9.20;;;;;;;;;;5050545;28;20108;-66
2023/12/04 08:04:39;;;;;;;17.50;8.13;;;;;;;;;;5053348;28;20083;-66
2023/12/04 08:07:05;;;;;;;20.42;8.85;;;;;;;;;;5051546;28;20028;-66
2023/12/04 08:09:30;;;;;;;17.17;9.15;;;;;;;;;;5052324;28;20028;-67
2023/12/04 08:11:56;;;;;;;9.50;6.35;;;;;;;;;;5051639;28;20029;-67
2023/12/04 08:14:21;;;;;;;9.90;6.00;;;;;;;;;;5060692;28;20040;-64
2023/12/04 08:16:48;;;;;;;25.27;10.55;;;;;;;;;;5071851;28;20398;-65
2023/12/04 08:19:13;;;;;;;18.38;8.70;;;;;;;;;;5058416;28;20017;-65
2023/12/04 08:21:39;;;;;;;30.45;12.85;;;;;;;;;;5054877;28;20112;-65
2023/12/04 08:24:04;;;;;;;24.80;8.52;;;;;;;;;;5054750;28;20021;-67
2023/12/04 08:26:30;;;;;;;14.25;6.65;;;;;;;;;;5054627;28;20025;-64
2023/12/04 08:28:56;;;;;;;25.88;11.73;;;;;;;;;;5054812;28;20025;-66
2023/12/04 08:31:21;;;;;;;15.80;7.20;;;;;;;;;;5053043;28;20025;-66
2023/12/04 08:33:47;;;;;;;21.05;9.27;;;;;;;;;;5053276;28;20091;-67
2023/12/04 08:36:13;;;;;;;21.88;8.85;;;;;;;;;;5055543;28;20537;-67
2023/12/04 08:38:38;;;;;;;10.63;5.90;;;;;;;;;;5054561;28;20029;-66
2023/12/04 08:41:04;;;;;;;26.33;10.77;;;;;;;;;;5054668;28;20082;-68
2023/12/04 08:43:30;;;;;;;20.77;10.40;;;;;;;;;;5054368;28;20059;-66
2023/12/04 08:45:55;;;;;;;14.50;8.32;;;;;;;;;;5054206;28;20037;-66
2023/12/04 08:48:21;;;;;;;16.17;8.30;;;;;;;;;;5054112;28;20126;-66
2023/12/04 08:50:48;;;;;;;15.20;7.32;;;;;;;;;;5053134;28;20155;-66
2023/12/04 08:53:13;;;;;;;11.20;7.53;;;;;;;;;;5054034;28;20098;-67
2023/12/04 08:55:39;;;;;;;23.60;10.02;;;;;;;;;;5054481;28;20471;-66
2023/12/04 08:58:04;;;;;;;28.08;12.30;;;;;;;;;;5054198;28;20021;-66
2023/12/04 09:00:30;;;;;;;20.10;9.48;;;;;;;;;;5053977;28;20033;-66
2023/12/04 09:02:55;;;;;;;17.13;8.23;;;;;;;;;;5053788;28;20052;-67
2023/12/04 09:05:21;;;;;;;20.58;9.50;;;;;;;;;;5053998;28;20041;-66
2023/12/04 09:07:46;;;;;;;22.60;10.95;;;;;;;;;;5053970;28;20040;-67
2023/12/04 09:10:12;;;;;;;36.58;13.73;;;;;;;;;;5055212;28;20162;-67
2023/12/04 09:12:40;;;;;;;27.48;9.88;;;;;;;;;;5053601;28;20044;-66
2023/12/04 09:15:06;;;;;;;14.50;9.43;;;;;;;;;;5053700;28;20397;-67
2023/12/04 09:17:32;;;;;;;21.73;10.85;;;;;;;;;;5053794;28;20116;-66
2023/12/04 09:19:57;;;;;;;32.28;12.85;;;;;;;;;;5053788;28;20064;-66
2023/12/04 09:22:23;;;;;;;23.45;11.20;;;;;;;;;;5053670;28;20049;-67
2023/12/04 09:24:49;;;;;;;15.80;8.18;;;;;;;;;;5053721;28;20195;-66
2023/12/04 09:27:15;;;;;;;14.23;7.13;;;;;;;;;;5053462;28;20017;-67
2023/12/04 09:29:41;;;;;;;38.20;13.02;;;;;;;;;;5052430;28;20083;-67
2023/12/04 09:32:06;;;;;;;37.17;14.30;;;;;;;;;;5052978;28;20025;-67
2023/12/04 09:34:32;;;;;;;41.20;17.50;;;;;;;;;;5053122;28;20373;-66
2023/12/04 09:36:57;;;;;;;21.88;10.77;;;;;;;;;;5052868;28;20023;-66
2023/12/04 09:39:23;;;;;;;39.00;16.25;;;;;;;;;;5053137;28;20029;-66
2023/12/04 09:41:50;;;;;;;32.42;13.32;;;;;;;;;;5053592;28;20160;-66
2023/12/04 09:44:16;;;;;;;43.20;18.08;;;;;;;;;;5052007;28;20434;-66
2023/12/04 09:46:42;;;;;;;44.75;17.30;;;;;;;;;;5051593;28;20029;-66
2023/12/04 09:49:08;;;;;;;48.53;19.08;;;;;;;;;;5051667;28;20384;-66
2023/12/04 09:51:33;;;;;;;33.90;15.20;;;;;;;;;;5053252;28;20114;-66
2023/12/04 09:54:03;;;;;;;40.47;19.52;;;;;;;;;;5053144;28;20103;-66
2023/12/04 09:56:29;;;;;;;36.75;16.40;;;;;;;;;;5053096;28;20103;-65
2023/12/04 09:58:58;;;;;;;37.33;16.23;;;;;;;;;;5052862;28;20477;-66
2023/12/04 10:01:24;;;;;;;35.25;16.58;;;;;;;;;;5051955;28;20032;-65
2023/12/04 10:03:50;;;;;;;28.35;14.15;;;;;;;;;;5053137;28;20029;-65
2023/12/04 10:06:19;;;;;;;24.80;11.25;;;;;;;;;;5052872;28;20409;-65
2023/12/04 10:08:45;;;;;;;43.03;18.38;;;;;;;;;;5054143;28;20061;-66
2023/12/04 10:11:12;;;;;;;39.83;17.88;;;;;;;;;;5051616;28;20056;-66
2023/12/04 10:13:40;;;;;;;32.13;14.80;;;;;;;;;;5052792;28;20431;-66
2023/12/04 10:16:05;;;;;;;37.42;16.35;;;;;;;;;;5052912;28;20025;-66
2023/12/04 10:18:31;;;;;;;27.40;12.65;;;;;;;;;;5052682;28;20028;-66
2023/12/04 10:20:57;;;;;;;43.85;19.25;;;;;;;;;;5052581;28;20421;-66
2023/12/04 10:23:40;;;;;;;41.67;18.08;;;;;;;;;;5052598;28;20117;-67
2023/12/04 10:26:07;;;;;;;38.40;16.55;;;;;;;;;;5052473;28;20031;-66
2023/12/04 10:28:33;;;;;;;54.47;20.88;;;;;;;;;;5052327;28;20386;-66
2023/12/04 10:30:59;;;;;;;43.17;19.83;;;;;;;;;;5050425;28;20033;-67
2023/12/04 10:33:28;;;;;;;30.55;11.43;;;;;;;;;;5051693;28;20104;-66
2023/12/04 10:35:55;;;;;;;32.97;13.27;;;;;;;;;;5051930;28;20474;-65
2023/12/04 10:38:20;;;;;;;40.08;16.25;;;;;;;;;;5052216;28;20032;-65
2023/12/04 10:40:46;;;;;;;60.17;22.08;;;;;;;;;;5051683;28;20027;-66
2023/12/04 10:43:17;;;;;;;45.08;16.38;;;;;;;;;;5052284;28;20052;-66
2023/12/04 10:45:45;;;;;;;48.28;17.80;;;;;;;;;;5052314;28;20028;-66
2023/12/04 10:48:11;;;;;;;38.63;16.15;;;;;;;;;;5052129;28;20051;-66
2023/12/04 10:50:42;;;;;;;46.72;18.45;;;;;;;;;;5050943;28;20028;-65
2023/12/04 10:53:09;;;;;;;46.08;16.65;;;;;;;;;;5052211;28;20057;-66
2023/12/04 10:55:35;;;;;;;46.00;17.20;;;;;;;;;;5052045;28;20033;-66
2023/12/04 10:58:05;;;;;;;48.05;15.65;;;;;;;;;;5052190;28;20082;-66
2023/12/04 11:00:33;;;;;;;34.95;14.70;;;;;;;;;;5052321;28;20116;-66
2023/12/04 11:03:04;;;;;;;53.40;20.23;;;;;;;;;;5051936;28;20099;-66
2023/12/04 11:05:33;;;;;;;52.08;17.13;;;;;;;;;;5052085;28;20163;-67
2023/12/04 11:08:01;;;;;;;25.27;11.32;;;;;;;;;;5052051;28;20094;-65
2023/12/04 11:10:29;;;;;;;39.08;16.73;;;;;;;;;;5053065;28;20386;-66
2023/12/04 11:13:12;;;;;;;29.50;13.13;;;;;;;;;;5051896;28;20044;-66
2023/12/04 11:16:00;;;;;;;49.05;17.63;;;;;;;;;;5052216;28;20108;-66
2023/12/04 11:18:31;;;;;;;60.75;20.92;;;;;;;;;;5051778;28;20095;-66
2023/12/04 11:21:06;;;;;;;51.15;18.50;;;;;;;;;;5051981;28;20096;-65
2023/12/04 11:23:33;;;;;;;69.30;20.50;;;;;;;;;;5051994;28;20116;-65
2023/12/04 11:26:00;;;;;;;53.20;18.70;;;;;;;;;;5051873;28;20075;-66
2023/12/04 11:28:27;;;;;;;42.90;16.42;;;;;;;;;;5051592;28;20029;-66
2023/12/04 11:30:53;;;;;;;66.03;21.77;;;;;;;;;;5051810;28;20025;-67
2023/12/04 11:33:19;;;;;;;24.85;14.07;;;;;;;;;;5051616;28;20033;-66
2023/12/04 11:35:45;;;;;;;27.63;12.85;;;;;;;;;;5051708;28;20040;-66
2023/12/04 11:38:13;;;;;;;36.63;16.45;;;;;;;;;;5051733;28;20025;-66
2023/12/04 11:40:42;;;;;;;46.33;17.75;;;;;;;;;;5051831;28;20071;-66
2023/12/04 11:43:27;;;;;;;25.80;13.00;;;;;;;;;;5051864;28;20021;-65
2023/12/04 11:45:53;;;;;;;29.65;13.52;;;;;;;;;;5051801;28;20025;-66
2023/12/04 11:48:25;;;;;;;14.68;8.57;;;;;;;;;;5051656;28;20040;-65
2023/12/04 11:50:51;;;;;;;26.45;10.85;;;;;;;;;;5051689;28;20125;-65
2023/12/04 11:53:16;;;;;;;18.75;9.05;;;;;;;;;;5054346;28;20131;-66
2023/12/04 11:55:42;;;;;;;13.77;7.00;;;;;;;;;;5055595;28;20112;-66
2023/12/04 11:58:11;;;;;;;20.50;9.65;;;;;;;;;;5055519;28;20033;-66
2023/12/04 12:00:37;;;;;;;9.48;5.80;;;;;;;;;;5055337;28;20108;-66
2023/12/04 12:03:09;;;;;;;20.52;10.20;;;;;;;;;;5055425;28;20534;-66
2023/12/04 12:05:35;;;;;;;14.55;8.55;;;;;;;;;;5055291;28;20029;-66
2023/12/04 12:08:04;;;;;;;37.83;14.35;;;;;;;;;;5055001;28;20418;-65
2023/12/04 12:10:30;;;;;;;24.33;11.85;;;;;;;;;;5055189;28;20128;-65
2023/12/04 12:12:56;;;;;;;20.55;8.60;;;;;;;;;;5055168;28;20398;-65
2023/12/04 12:15:22;;;;;;;16.58;7.63;;;;;;;;;;5055176;28;20032;-65
2023/12/04 12:17:49;;;;;;;14.25;6.40;;;;;;;;;;5055181;28;20029;-65
2023/12/04 12:20:15;;;;;;;15.35;8.00;;;;;;;;;;5054996;28;20447;-65
2023/12/04 12:22:43;;;;;;;20.42;8.90;;;;;;;;;;5054600;28;20091;-65
2023/12/04 12:25:10;;;;;;;30.80;12.30;;;;;;;;;;5055005;28;20562;-65
2023/12/04 12:27:36;;;;;;;15.13;7.78;;;;;;;;;;5054720;28;20060;-65
2023/12/04 12:30:03;;;;;;;21.45;8.70;;;;;;;;;;5054709;28;20060;-65
2023/12/04 12:32:28;;;;;;;10.23;6.55;;;;;;;;;;5054698;28;20123;-65
2023/12/04 12:34:54;;;;;;;20.27;9.02;;;;;;;;;;5054574;28;20029;-65
2023/12/04 12:37:20;;;;;;;13.20;7.18;;;;;;;;;;5054491;28;20652;-66
2023/12/04 12:39:46;;;;;;;23.63;9.93;;;;;;;;;;5054693;28;20021;-66
2023/12/04 12:42:11;;;;;;;16.75;9.23;;;;;;;;;;5054696;28;20127;-66
2023/12/04 12:44:40;;;;;;;16.02;7.72;;;;;;;;;;5054548;28;20478;-66
2023/12/04 12:47:07;;;;;;;18.45;8.13;;;;;;;;;;5054290;28;20137;-66
2023/12/04 12:49:33;;;;;;;20.98;9.23;;;;;;;;;;5054371;28;20056;-66
2023/12/04 12:52:00;;;;;;;13.05;8.60;;;;;;;;;;5053960;28;20013;-66
2023/12/04 12:54:25;;;;;;;22.83;8.20;;;;;;;;;;5054333;28;20485;-66
2023/12/04 12:56:51;;;;;;;19.63;10.38;;;;;;;;;;5054339;28;20032;-66
2023/12/04 12:59:17;;;;;;;17.73;7.90;;;;;;;;;;5054257;28;20017;-66
2023/12/04 13:01:43;;;;;;;16.05;7.90;;;;;;;;;;5054363;28;20036;-66
2023/12/04 13:04:10;;;;;;;12.20;7.18;;;;;;;;;;5053674;28;20421;-66
2023/12/04 13:06:35;;;;;;;20.60;10.68;;;;;;;;;;5053431;28;20471;-65
2023/12/04 13:09:01;;;;;;;24.08;9.00;;;;;;;;;;5055349;28;20024;-66
2023/12/04 13:11:27;;;;;;;24.60;10.60;;;;;;;;;;5054012;28;20123;-64
2023/12/04 13:13:52;;;;;;;20.30;8.70;;;;;;;;;;5053988;28;20025;-65
2023/12/04 13:16:18;;;;;;;16.60;8.60;;;;;;;;;;5054037;28;20037;-66
2023/12/04 13:18:44;;;;;;;21.13;11.35;;;;;;;;;;5053827;28;20076;-66
2023/12/04 13:21:10;;;;;;;17.67;7.80;;;;;;;;;;5053664;28;20036;-65
2023/12/04 13:23:37;;;;;;;16.80;7.75;;;;;;;;;;5053476;28;20065;-66
2023/12/04 13:26:03;;;;;;;18.35;9.38;;;;;;;;;;5052486;28;20025;-66
2023/12/04 13:28:28;;;;;;;21.70;8.90;;;;;;;;;;5053623;28;20017;-66
2023/12/04 13:30:55;;;;;;;10.70;5.70;;;;;;;;;;5053737;28;20025;-66
2023/12/04 13:33:21;;;;;;;10.13;5.15;;;;;;;;;;5053404;28;20040;-65
2023/12/04 13:35:46;;;;;;;22.92;12.02;;;;;;;;;;5053189;28;20029;-65
2023/12/04 13:38:15;;;;;;;14.00;7.15;;;;;;;;;;5053600;28;20052;-66
2023/12/04 13:40:40;;;;;;;11.50;5.38;;;;;;;;;;5053452;28;20039;-66
2023/12/04 13:45:51;;;;;;;14.25;6.68;;;;;;;;;;5053888;28;20032;-66
2023/12/04 13:48:18;;;;;;;13.13;7.35;;;;;;;;;;5053343;28;20025;-65
2023/12/04 13:50:43;;;;;;;17.60;8.80;;;;;;;;;;5053134;28;20116;-66
2023/12/04 13:53:09;;;;;;;18.65;9.75;;;;;;;;;;5051692;28;20120;-65
2023/12/04 13:55:47;;;;;;;18.13;9.15;;;;;;;;;;5053266;28;20040;-65
2023/12/04 13:58:37;;;;;;;25.13;10.45;;;;;;;;;;5053293;28;20033;-65
2023/12/04 14:00:58;;;;;;;10.52;4.95;;;;;;;;;;5052940;28;20025;-66
2023/12/04 14:03:23;;;;;;;18.83;8.15;;;;;;;;;;5053115;28;20025;-66
2023/12/04 14:05:49;;;;;;;25.95;10.88;;;;;;;;;;5053182;28;20039;-65
2023/12/04 14:08:14;;;;;;;18.10;8.38;;;;;;;;;;5053070;28;20021;-66
2023/12/04 14:10:40;;;;;;;15.00;7.53;;;;;;;;;;5054113;28;20041;-65
2023/12/04 14:13:05;;;;;;;26.60;11.02;;;;;;;;;;5052833;28;20021;-65
2023/12/04 14:15:31;;;;;;;17.17;9.57;;;;;;;;;;5051962;28;20029;-65
2023/12/04 14:17:56;;;;;;;9.32;5.35;;;;;;;;;;5052510;28;20025;-65
2023/12/04 14:20:22;;;;;;;20.52;9.48;;;;;;;;;;5052769;28;20040;-64
2023/12/04 14:22:47;;;;;;;14.32;6.30;;;;;;;;;;5052749;28;20151;-66